Energy Zeus — WDD3941 — position and weather

sailwx.info

Track history (hours):
 
Tides and Currents Weather Stations Pressure Air Temp Water Temp Dewpoint Dewpoint Depression Visibility Wind Speed Wind Dir Waves Ship Positions

Energy Zeus

Owner: Seabulk Towing Services, Inc., Fort Lauderdale, FL. More information available from US FCC via Universal Licensing System and Coast Guard Vessel Documentation Center.

Last reported at 2017-Sep-22 02:00 UTC. Time now 2017-Sep-23 03:55 UTC.
Position N 30°08' W 093°20'.

Length 30 m; draft 4 m.

Type: Tug. MMSI: 367138360.

Date/timePositionNaut miles runAvg speedWind from/ knotsBaromVisibWave heightAir tempDewpointWater temp
2017-Sep-22 02:00N 30°08' W 093°20'3 5.3
2017-Sep-22 01:30N 30°05' W 093°20'0 0.5
2017-Sep-22 01:01N 30°05' W 093°20'2 4.9
2017-Sep-22 00:30N 30°06' W 093°17'0 0.0
2017-Sep-22 00:00N 30°06' W 093°17'0 0.0
2017-Sep-21 23:29N 30°06' W 093°17'0 0.0
2017-Sep-21 22:59N 30°06' W 093°17'0 0.0
2017-Sep-21 22:29N 30°06' W 093°17'0 0.0
2017-Sep-21 21:59N 30°06' W 093°17'0 0.0
2017-Sep-21 21:29N 30°06' W 093°17'0 0.0
2017-Sep-21 20:59N 30°06' W 093°17'0 0.0
2017-Sep-21 20:29N 30°06' W 093°17'0 0.0
2017-Sep-21 19:59N 30°06' W 093°17'0 0.0
2017-Sep-21 19:23N 30°06' W 093°17'0 0.0
2017-Sep-21 18:59N 30°06' W 093°17'0 0.0
2017-Sep-21 18:29N 30°06' W 093°17'0 0.0
2017-Sep-21 17:59N 30°06' W 093°17'0 0.0
2017-Sep-21 17:30N 30°06' W 093°17'2 4.9
2017-Sep-21 17:00N 30°08' W 093°20'3 4.7
2017-Sep-21 16:24N 30°11' W 093°19'2 5.3
2017-Sep-21 16:00N 30°12' W 093°17'1 3.0
2017-Sep-21 15:30N 30°13' W 093°16'1 2.1
2017-Sep-21 15:00N 30°14' W 093°15'0 0.0
2017-Sep-21 14:30N 30°14' W 093°15'0 0.4
2017-Sep-21 14:00N 30°14' W 093°15'2 3.9
2017-Sep-21 13:30N 30°12' W 093°17'4 8.4
2017-Sep-21 13:00N 30°09' W 093°20'1 1.2
2017-Sep-21 12:30N 30°09' W 093°20'0 0.0
2017-Sep-21 12:00N 30°09' W 093°20'1 2.7
2017-Sep-21 11:30N 30°08' W 093°20'3 5.5
2017-Sep-21 11:00N 30°05' W 093°19'2 3.7
2017-Sep-21 10:30N 30°04' W 093°20'3 7.0
2017-Sep-21 10:00N 30°06' W 093°17'0 0.0
2017-Sep-21 09:29N 30°06' W 093°17'0 0.0
2017-Sep-21 08:59N 30°06' W 093°17'0 0.0
2017-Sep-21 08:29N 30°06' W 093°17'0 0.0
2017-Sep-21 07:59N 30°06' W 093°17'0 0.1
2017-Sep-21 07:29N 30°07' W 093°17'0 0.1
2017-Sep-21 06:59N 30°06' W 093°17'0 0.0
2017-Sep-21 06:29N 30°06' W 093°17'0 0.0
2017-Sep-21 05:59N 30°06' W 093°17'0 0.0
2017-Sep-21 05:29N 30°06' W 093°17'0 0.0
2017-Sep-21 04:59N 30°06' W 093°17'0 0.0
2017-Sep-21 04:29N 30°06' W 093°17'0 0.0
2017-Sep-21 03:59N 30°06' W 093°17'0 0.0
2017-Sep-21 03:29N 30°06' W 093°17'0 0.0
2017-Sep-21 02:53N 30°06' W 093°17'0 0.0
2017-Sep-21 02:29N 30°06' W 093°17'2 4.1
2017-Sep-21 02:00N 30°06' W 093°19'4 7.7
2017-Sep-21 01:30N 30°09' W 093°20'0 0.2
2017-Sep-21 01:00N 30°09' W 093°20'2 4.4
2017-Sep-21 00:30N 30°11' W 093°18'3 5.2
2017-Sep-20 23:59N 30°13' W 093°15'0 0.0
2017-Sep-20 23:29N 30°13' W 093°15'0 0.0
2017-Sep-20 22:59N 30°13' W 093°15'0 0.0
2017-Sep-20 22:29N 30°13' W 093°15'0 0.0
2017-Sep-20 21:59N 30°13' W 093°15'0 0.0
2017-Sep-20 21:29N 30°13' W 093°15'0 0.0
2017-Sep-20 20:59N 30°13' W 093°15'0 0.0
2017-Sep-20 20:29N 30°13' W 093°15'0 0.0
2017-Sep-20 19:59N 30°13' W 093°15'0 0.0
2017-Sep-20 19:29N 30°13' W 093°15'0 0.0
2017-Sep-20 18:59N 30°13' W 093°15'0 0.0
2017-Sep-20 18:29N 30°13' W 093°15'0 0.0
2017-Sep-20 17:59N 30°13' W 093°15'0 0.0
2017-Sep-20 17:29N 30°13' W 093°15'0 0.0
2017-Sep-20 16:59N 30°13' W 093°15'0 0.0
2017-Sep-20 16:29N 30°13' W 093°15'0 0.0
2017-Sep-20 15:59N 30°13' W 093°15'0 0.0
2017-Sep-20 15:29N 30°13' W 093°15'0 0.0
2017-Sep-20 14:59N 30°13' W 093°15'0 0.0
2017-Sep-20 13:59N 30°13' W 093°15'0 0.0
2017-Sep-20 13:29N 30°13' W 093°15'0 0.0
2017-Sep-20 12:56N 30°13' W 093°15'0 0.0
2017-Sep-20 12:26N 30°13' W 093°15'0 0.0
2017-Sep-20 11:56N 30°13' W 093°15'0 0.0
2017-Sep-20 11:14N 30°13' W 093°15'0 0.0
2017-Sep-20 10:59N 30°13' W 093°15'0 0.0
2017-Sep-20 10:20N 30°13' W 093°15'0 0.0
2017-Sep-20 09:56N 30°13' W 093°15'0 0.0
2017-Sep-20 09:26N 30°13' W 093°15'0 0.0
2017-Sep-20 08:56N 30°13' W 093°15'0 0.0
2017-Sep-20 08:20N 30°13' W 093°15'0 0.0
2017-Sep-20 07:50N 30°13' W 093°15'2 6.0
2017-Sep-20 07:30N 30°12' W 093°17'4 7.6
2017-Sep-20 07:00N 30°09' W 093°20'0 0.6
2017-Sep-20 06:30N 30°09' W 093°20'0 0.0
2017-Sep-20 06:00N 30°09' W 093°20'0 0.8
2017-Sep-20 05:30N 30°09' W 093°20'1 1.0
2017-Sep-20 05:00N 30°09' W 093°20'0 0.0
2017-Sep-20 04:31N 30°09' W 093°20'0 0.0
2017-Sep-20 04:01N 30°09' W 093°20'1 1.2
2017-Sep-20 03:30N 30°09' W 093°20'0 0.8
2017-Sep-20 03:00N 30°09' W 093°20'2 3.8
2017-Sep-20 02:31N 30°07' W 093°20'3 5.7
2017-Sep-20 02:00N 30°04' W 093°20'3 5.0
2017-Sep-20 01:30N 30°06' W 093°19'1 2.2
2017-Sep-20 01:00N 30°06' W 093°17'0 0.0
2017-Sep-20 00:26N 30°06' W 093°17'0 0.0
2017-Sep-19 23:59N 30°06' W 093°17'0 0.0
2017-Sep-19 23:29N 30°06' W 093°17'0 0.0
2017-Sep-19 22:59N 30°06' W 093°17'0 0.0
2017-Sep-19 22:29N 30°06' W 093°17'0 0.0
2017-Sep-19 21:59N 30°06' W 093°17'0 0.0
2017-Sep-19 21:29N 30°06' W 093°17'0 0.0
2017-Sep-19 20:59N 30°06' W 093°17'0 0.0
2017-Sep-19 20:29N 30°06' W 093°17'0 0.0
2017-Sep-19 19:59N 30°06' W 093°17'0 0.0
2017-Sep-19 19:11N 30°06' W 093°17'0 0.0
2017-Sep-19 19:00N 30°06' W 093°17'2 4.8
2017-Sep-19 18:30N 30°07' W 093°20'2 0.9
2017-Sep-19 16:11N 30°09' W 093°20'1 8.7
2017-Sep-19 16:00N 30°08' W 093°20'2 5.0
2017-Sep-19 15:30N 30°06' W 093°17'0 0.0
2017-Sep-19 15:00N 30°06' W 093°17'0 0.0
2017-Sep-19 14:30N 30°06' W 093°17'0 0.0
2017-Sep-19 14:00N 30°06' W 093°17'0 0.0
2017-Sep-19 13:30N 30°06' W 093°17'0 0.0
2017-Sep-19 13:00N 30°06' W 093°17'0 0.0
2017-Sep-19 12:30N 30°06' W 093°17'0 0.0
2017-Sep-19 12:00N 30°06' W 093°17'0 0.0
2017-Sep-19 11:30N 30°06' W 093°17'0 0.0
2017-Sep-19 11:00N 30°06' W 093°17'0 0.0
2017-Sep-19 10:30N 30°06' W 093°17'2 4.5
2017-Sep-19 10:00N 30°07' W 093°20'4 7.7
2017-Sep-19 09:31N 30°10' W 093°19'0 0.6
2017-Sep-19 09:01N 30°11' W 093°19'1 2.3
2017-Sep-19 08:31N 30°11' W 093°18'0 0.0
2017-Sep-19 08:01N 30°11' W 093°18'0 0.0
2017-Sep-19 07:31N 30°11' W 093°18'3 5.3
2017-Sep-19 07:01N 30°13' W 093°16'0 0.5
2017-Sep-19 06:13N 30°13' W 093°15'0 2.3
2017-Sep-19 06:00N 30°13' W 093°15'0 0.0
2017-Sep-19 05:30N 30°13' W 093°15'0 0.0
2017-Sep-19 04:44N 30°13' W 093°15'0 0.0
2017-Sep-19 04:29N 30°13' W 093°15'0 0.0
2017-Sep-19 03:59N 30°13' W 093°15'0 0.0
2017-Sep-19 03:29N 30°13' W 093°15'0 0.0
2017-Sep-19 02:47N 30°13' W 093°15'0 0.0
2017-Sep-19 02:26N 30°13' W 093°15'0 0.0
2017-Sep-19 01:59N 30°13' W 093°15'0 0.0
2017-Sep-19 01:29N 30°13' W 093°15'0 0.0
2017-Sep-19 00:23N 30°13' W 093°15'0 0.0
2017-Sep-18 23:59N 30°13' W 093°15'0 0.0
2017-Sep-18 23:29N 30°13' W 093°15'0 0.0
2017-Sep-18 22:59N 30°13' W 093°15'0 0.0
2017-Sep-18 22:29N 30°13' W 093°15'0 0.0
2017-Sep-18 21:59N 30°13' W 093°15'0 0.0
2017-Sep-18 21:29N 30°13' W 093°15'0 0.0
2017-Sep-18 20:59N 30°13' W 093°15'0 0.0
2017-Sep-18 20:29N 30°13' W 093°15'0 0.0
2017-Sep-18 19:59N 30°13' W 093°15'0 0.0
2017-Sep-18 19:29N 30°13' W 093°15'0 0.0
2017-Sep-18 18:59N 30°13' W 093°15'0 0.0
2017-Sep-18 18:29N 30°13' W 093°15'0 0.0
2017-Sep-18 17:59N 30°13' W 093°15'0 0.0
2017-Sep-18 17:29N 30°13' W 093°15'0 0.0
2017-Sep-18 16:59N 30°13' W 093°15'0 0.0
2017-Sep-18 16:28N 30°13' W 093°15'4 7.6
2017-Sep-18 16:00N 30°11' W 093°19'2 4.6
2017-Sep-18 15:30N 30°09' W 093°20'0 0.0
2017-Sep-18 15:00N 30°09' W 093°20'1 2.6
2017-Sep-18 14:30N 30°07' W 093°20'1 1.8
2017-Sep-18 14:00N 30°07' W 093°20'1 2.9
2017-Sep-18 13:30N 30°06' W 093°18'1 1.5
2017-Sep-18 13:00N 30°06' W 093°17'0 0.0
2017-Sep-18 12:30N 30°06' W 093°17'0 0.0
2017-Sep-18 12:00N 30°06' W 093°17'2 3.9
2017-Sep-18 11:30N 30°06' W 093°19'4 7.5
2017-Sep-18 11:00N 30°09' W 093°20'0 0.5
2017-Sep-18 10:30N 30°10' W 093°20'0 0.0
2017-Sep-18 10:00N 30°10' W 093°20'0 0.7
2017-Sep-18 09:30N 30°09' W 093°20'2 4.2
2017-Sep-18 09:00N 30°07' W 093°20'3 5.8
2017-Sep-18 08:30N 30°04' W 093°20'1 1.4
2017-Sep-18 08:00N 30°04' W 093°20'3 7.0
2017-Sep-18 07:30N 30°06' W 093°17'0 0.0
2017-Sep-18 06:58N 30°06' W 093°17'0 0.0
2017-Sep-18 06:28N 30°06' W 093°17'0 0.0
2017-Sep-18 05:58N 30°06' W 093°17'0 0.0
2017-Sep-18 05:28N 30°06' W 093°17'0 0.0
2017-Sep-18 04:58N 30°06' W 093°17'0 0.0
2017-Sep-18 04:28N 30°06' W 093°17'0 0.0
2017-Sep-18 03:58N 30°06' W 093°17'0 0.0
2017-Sep-18 03:28N 30°06' W 093°17'0 0.0
2017-Sep-18 02:58N 30°06' W 093°17'0 0.0
2017-Sep-18 02:28N 30°06' W 093°17'0 0.0
2017-Sep-18 01:58N 30°06' W 093°17'0 0.0
2017-Sep-18 01:28N 30°06' W 093°17'0 0.0
2017-Sep-18 00:58N 30°06' W 093°17'0 0.0
2017-Sep-18 00:28N 30°06' W 093°17'2 5.0
2017-Sep-18 00:00N 30°07' W 093°20'4 8.1
2017-Sep-17 23:31N 30°11' W 093°19'0 0.2
2017-Sep-17 23:00N 30°11' W 093°19'0 0.5
2017-Sep-17 22:30N 30°11' W 093°19'0 0.7
2017-Sep-17 22:01N 30°11' W 093°18'1 1.8
2017-Sep-17 21:26N 30°12' W 093°18'0 0.0
2017-Sep-17 20:59N 30°12' W 093°18'0 0.0
2017-Sep-17 20:29N 30°12' W 093°18'0 0.0
2017-Sep-17 19:59N 30°12' W 093°18'0 0.0
2017-Sep-17 19:26N 30°12' W 093°18'0 0.0
2017-Sep-17 18:59N 30°12' W 093°18'0 0.2
2017-Sep-17 18:30N 30°12' W 093°18'1 1.6
2017-Sep-17 18:00N 30°11' W 093°18'2 3.4
2017-Sep-17 17:30N 30°10' W 093°19'0 0.0
2017-Sep-17 17:00N 30°10' W 093°20'0 0.0
2017-Sep-17 16:30N 30°10' W 093°20'0 0.0
2017-Sep-17 16:00N 30°10' W 093°20'0 0.0
2017-Sep-17 15:30N 30°10' W 093°20'0 0.4
2017-Sep-17 15:00N 30°09' W 093°20'2 3.3
2017-Sep-17 14:30N 30°11' W 093°19'1 2.1
2017-Sep-17 14:00N 30°12' W 093°18'0 0.1
2017-Sep-17 13:30N 30°12' W 093°18'0 0.0
2017-Sep-17 13:00N 30°12' W 093°18'0 0.0
2017-Sep-17 12:30N 30°12' W 093°18'0 0.2
2017-Sep-17 12:00N 30°12' W 093°18'0 0.4
2017-Sep-17 11:30N 30°11' W 093°18'0 0.0
2017-Sep-17 11:00N 30°11' W 093°18'1 1.8
2017-Sep-17 10:30N 30°11' W 093°19'0 0.7
2017-Sep-17 10:00N 30°11' W 093°18'1 2.9
2017-Sep-17 09:30N 30°10' W 093°19'3 5.5
2017-Sep-17 09:00N 30°12' W 093°17'2 4.0
2017-Sep-17 08:30N 30°13' W 093°15'0 0.0
2017-Sep-17 07:59N 30°13' W 093°15'0 0.0
2017-Sep-17 07:30N 30°13' W 093°15'1 2.1
2017-Sep-17 07:00N 30°14' W 093°15'0 0.2
2017-Sep-17 06:30N 30°14' W 093°15'2 3.1
2017-Sep-17 06:00N 30°12' W 093°16'2 3.4
2017-Sep-17 05:30N 30°11' W 093°18'0 0.1
2017-Sep-17 04:57N 30°11' W 093°18'2 5.6
2017-Sep-17 04:30N 30°09' W 093°20'4 7.3
2017-Sep-17 04:00N 30°06' W 093°20'0 0.4
2017-Sep-17 03:30N 30°06' W 093°20'0 0.0
2017-Sep-17 03:00N 30°06' W 093°20'0 0.0
2017-Sep-17 02:30N 30°06' W 093°20'0 0.0
2017-Sep-17 02:00N 30°06' W 093°20'0 0.0
2017-Sep-17 01:30N 30°06' W 093°20'1 2.8
2017-Sep-17 01:00N 30°06' W 093°18'0 0.0
2017-Sep-17 00:30N 30°06' W 093°18'0 0.0
2017-Sep-17 00:00N 30°06' W 093°18'0 0.4
2017-Sep-16 23:30N 30°06' W 093°19'3 5.8
2017-Sep-16 23:00N 30°09' W 093°20'4 8.5
2017-Sep-16 22:30N 30°12' W 093°17'1 2.4
2017-Sep-16 21:59N 30°13' W 093°15'0 0.0
2017-Sep-16 21:26N 30°13' W 093°15'0 0.0
2017-Sep-16 20:59N 30°13' W 093°15'0 0.0
2017-Sep-16 20:29N 30°13' W 093°15'0 0.0
2017-Sep-16 19:59N 30°13' W 093°15'0 0.0
2017-Sep-16 19:29N 30°13' W 093°15'0 0.0
2017-Sep-16 18:59N 30°13' W 093°15'0 0.0
2017-Sep-16 18:29N 30°13' W 093°15'0 0.0
2017-Sep-16 17:59N 30°13' W 093°15'0 0.0
2017-Sep-16 17:29N 30°13' W 093°15'0 0.0
2017-Sep-16 16:59N 30°13' W 093°15'0 0.0
2017-Sep-16 16:29N 30°13' W 093°15'0 0.0
2017-Sep-16 15:59N 30°13' W 093°15'0 0.0
2017-Sep-16 15:29N 30°13' W 093°15'0 0.0
2017-Sep-16 14:56N 30°13' W 093°15'0 0.0
2017-Sep-16 14:29N 30°13' W 093°15'0 0.0
2017-Sep-16 13:59N 30°13' W 093°15'0 0.0
2017-Sep-16 13:29N 30°13' W 093°15'0 0.0
2017-Sep-16 12:59N 30°13' W 093°15'0 0.0
2017-Sep-16 12:29N 30°13' W 093°15'0 0.0
2017-Sep-16 11:50N 30°13' W 093°15'0 0.0
2017-Sep-16 11:26N 30°13' W 093°15'1 1.6
2017-Sep-16 11:00N 30°13' W 093°15'1 1.6
2017-Sep-16 10:29N 30°14' W 093°15'0 0.9
2017-Sep-16 10:00N 30°14' W 093°15'1 1.8
2017-Sep-16 09:30N 30°13' W 093°16'1 2.6
2017-Sep-16 09:00N 30°12' W 093°17'2 4.4
2017-Sep-16 08:30N 30°11' W 093°19'2 3.7
2017-Sep-16 08:00N 30°09' W 093°20'3 5.1
2017-Sep-16 07:30N 30°07' W 093°20'3 6.1
2017-Sep-16 07:00N 30°04' W 093°20'1 1.2
2017-Sep-16 06:30N 30°04' W 093°20'3 5.6
2017-Sep-16 06:00N 30°06' W 093°17'0 0.0
2017-Sep-16 05:30N 30°06' W 093°17'0 0.0
2017-Sep-16 05:00N 30°06' W 093°17'0 0.0
2017-Sep-16 04:30N 30°06' W 093°17'1 1.5
2017-Sep-16 04:00N 30°06' W 093°18'3 5.3
2017-Sep-16 03:30N 30°09' W 093°20'4 8.4
2017-Sep-16 03:00N 30°12' W 093°17'2 2.7
2017-Sep-16 02:20N 30°13' W 093°15'1 3.7
2017-Sep-16 02:00N 30°12' W 093°16'2 3.1
2017-Sep-16 01:28N 30°11' W 093°18'0 0.4
2017-Sep-16 01:00N 30°11' W 093°18'4 7.0
2017-Sep-16 00:30N 30°08' W 093°20'2 4.2
2017-Sep-16 00:00N 30°06' W 093°18'1 1.4
2017-Sep-15 23:30N 30°06' W 093°17'0 0.0
2017-Sep-15 23:00N 30°06' W 093°17'0 0.0
2017-Sep-15 22:30N 30°06' W 093°17'0 0.0
2017-Sep-15 22:00N 30°06' W 093°17'0 0.0
2017-Sep-15 21:30N 30°06' W 093°17'0 0.0
2017-Sep-15 21:00N 30°06' W 093°17'0 0.0
2017-Sep-15 20:30N 30°06' W 093°17'0 0.0
2017-Sep-15 20:00N 30°06' W 093°17'0 0.0
2017-Sep-15 19:30N 30°06' W 093°17'0 0.0
2017-Sep-15 19:00N 30°06' W 093°17'0 0.0
2017-Sep-15 18:30N 30°06' W 093°17'0 0.0
2017-Sep-15 18:00N 30°06' W 093°17'0 0.0
2017-Sep-15 17:30N 30°06' W 093°17'2 3.1
2017-Sep-15 17:01N 30°06' W 093°19'4 7.2
2017-Sep-15 16:30N 30°09' W 093°20'0 0.3
2017-Sep-15 16:00N 30°09' W 093°20'1 1.5
2017-Sep-15 15:30N 30°09' W 093°20'1 1.7
2017-Sep-15 15:00N 30°10' W 093°20'0 0.5
2017-Sep-15 14:31N 30°09' W 093°20'1 2.6
2017-Sep-15 14:00N 30°11' W 093°19'2 3.7
2017-Sep-15 13:31N 30°12' W 093°17'2 4.1
2017-Sep-15 13:01N 30°13' W 093°16'1 2.0
2017-Sep-15 12:31N 30°14' W 093°15'0 0.0
2017-Sep-15 12:00N 30°14' W 093°15'0 0.1
2017-Sep-15 11:24N 30°14' W 093°15'1 1.8
2017-Sep-15 10:59N 30°13' W 093°15'0 0.0
2017-Sep-15 09:03N 30°13' W 093°15'0 7.0
2017-Sep-15 09:00N 30°13' W 093°16'3 4.8
2017-Sep-15 08:29N 30°12' W 093°18'0 0.1
2017-Sep-15 07:59N 30°11' W 093°18'1 1.5
2017-Sep-15 07:27N 30°11' W 093°18'1 2.7
2017-Sep-15 07:01N 30°10' W 093°19'0 0.5
2017-Sep-15 06:30N 30°10' W 093°19'3 5.4
2017-Sep-15 06:00N 30°12' W 093°17'2 3.4
2017-Sep-15 05:28N 30°13' W 093°15'0 0.0
2017-Sep-15 04:58N 30°13' W 093°15'0 0.0
2017-Sep-15 04:28N 30°13' W 093°15'0 0.0
2017-Sep-15 03:58N 30°13' W 093°15'0 0.0
2017-Sep-15 03:28N 30°13' W 093°15'0 0.0
2017-Sep-15 02:58N 30°13' W 093°15'0 0.0
2017-Sep-15 02:28N 30°13' W 093°15'0 0.0
2017-Sep-15 01:58N 30°13' W 093°15'0 0.0
2017-Sep-15 01:28N 30°13' W 093°15'0 0.0
2017-Sep-15 00:58N 30°13' W 093°15'0 0.0
2017-Sep-15 00:28N 30°13' W 093°15'0 0.0
2017-Sep-14 23:58N 30°13' W 093°15'1 3.0
2017-Sep-14 23:30N 30°12' W 093°17'4 2.5
2017-Sep-14 22:01N 30°09' W 093°20'0 0.0
2017-Sep-14 22:00N 30°09' W 093°20'0 0.4
2017-Sep-14 21:31N 30°09' W 093°20'3 7.0
2017-Sep-14 21:01N 30°12' W 093°17'1 2.3
2017-Sep-14 20:24N 30°13' W 093°15'0 0.0
2017-Sep-14 20:00N 30°13' W 093°15'0 0.0
2017-Sep-14 19:18N 30°13' W 093°15'0 0.0
2017-Sep-14 18:57N 30°13' W 093°15'0 0.0
2017-Sep-14 18:30N 30°13' W 093°15'0 0.0
2017-Sep-14 18:00N 30°13' W 093°15'0 0.0
2017-Sep-14 17:21N 30°13' W 093°15'0 0.0
2017-Sep-14 16:57N 30°13' W 093°15'0 0.0
2017-Sep-14 16:30N 30°13' W 093°15'0 0.0
2017-Sep-14 16:00N 30°13' W 093°15'0 0.0
2017-Sep-14 15:30N 30°13' W 093°15'0 0.0
2017-Sep-14 15:00N 30°13' W 093°15'0 0.0
2017-Sep-14 14:30N 30°13' W 093°15'0 0.0
2017-Sep-14 14:00N 30°13' W 093°15'0 0.0
2017-Sep-14 13:30N 30°13' W 093°15'0 0.0
2017-Sep-14 12:54N 30°13' W 093°15'0 0.0
2017-Sep-14 12:30N 30°13' W 093°15'0 0.0
2017-Sep-14 12:00N 30°13' W 093°15'0 0.0
2017-Sep-14 11:30N 30°13' W 093°15'0 0.0
2017-Sep-14 10:51N 30°13' W 093°15'0 0.0
2017-Sep-14 10:30N 30°13' W 093°15'0 0.0
2017-Sep-14 09:57N 30°13' W 093°15'0 0.0
2017-Sep-14 09:27N 30°13' W 093°15'1 2.4
2017-Sep-14 09:00N 30°13' W 093°15'0 0.9
2017-Sep-14 08:30N 30°14' W 093°15'0 0.0
2017-Sep-14 08:00N 30°14' W 093°15'0 0.2
2017-Sep-14 07:30N 30°14' W 093°15'1 1.5
2017-Sep-14 07:00N 30°13' W 093°15'1 2.7
2017-Sep-14 06:30N 30°12' W 093°16'3 5.5
2017-Sep-14 06:00N 30°11' W 093°19'2 3.3
2017-Sep-14 05:30N 30°09' W 093°20'3 5.3
2017-Sep-14 05:00N 30°07' W 093°20'3 6.7
2017-Sep-14 04:30N 30°03' W 093°20'2 4.3
2017-Sep-14 04:00N 30°05' W 093°20'2 4.2
2017-Sep-14 03:30N 30°06' W 093°17'0 0.0
2017-Sep-14 03:00N 30°06' W 093°17'0 0.0
2017-Sep-14 02:30N 30°06' W 093°17'0 0.0
2017-Sep-14 02:00N 30°06' W 093°17'0 0.0
2017-Sep-14 01:30N 30°06' W 093°17'0 0.0
2017-Sep-14 01:00N 30°06' W 093°17'0 0.0
2017-Sep-14 00:30N 30°06' W 093°17'0 0.0
2017-Sep-14 00:00N 30°06' W 093°17'0 0.0
2017-Sep-13 23:30N 30°06' W 093°17'0 0.0
2017-Sep-13 23:01N 30°06' W 093°17'0 0.0
2017-Sep-13 22:30N 30°06' W 093°17'0 0.0
2017-Sep-13 22:00N 30°06' W 093°17'0 0.0
2017-Sep-13 21:30N 30°06' W 093°17'0 0.0
2017-Sep-13 21:00N 30°06' W 093°17'0 0.0
2017-Sep-13 20:30N 30°06' W 093°17'0 0.0
2017-Sep-13 20:00N 30°06' W 093°17'0 0.0
2017-Sep-13 19:30N 30°06' W 093°17'0 0.0
2017-Sep-13 19:00N 30°06' W 093°17'0 0.0
2017-Sep-13 18:30N 30°06' W 093°17'0 0.0
2017-Sep-13 18:00N 30°06' W 093°17'0 0.0
2017-Sep-13 17:30N 30°06' W 093°17'0 0.0
2017-Sep-13 17:00N 30°06' W 093°17'0 0.0
2017-Sep-13 16:30N 30°06' W 093°17'0 0.0
2017-Sep-13 16:00N 30°06' W 093°17'2 4.7
2017-Sep-13 15:30N 30°07' W 093°20'3 5.8
2017-Sep-13 15:00N 30°10' W 093°19'1 1.5
2017-Sep-13 14:30N 30°11' W 093°19'2 3.8
2017-Sep-13 14:00N 30°09' W 093°20'0 0.0
2017-Sep-13 13:30N 30°09' W 093°20'0 0.4
2017-Sep-13 13:00N 30°09' W 093°20'2 4.7
2017-Sep-13 12:30N 30°07' W 093°20'3 5.9
2017-Sep-13 12:00N 30°04' W 093°20'2 3.3
2017-Sep-13 11:30N 30°02' W 093°20'4 7.3
2017-Sep-13 11:00N 30°06' W 093°19'1 2.8
2017-Sep-13 10:29N 30°06' W 093°17'0 0.0
2017-Sep-13 09:59N 30°06' W 093°17'0 0.0
2017-Sep-13 09:29N 30°06' W 093°17'0 0.0
2017-Sep-13 08:59N 30°06' W 093°17'0 0.0
2017-Sep-13 08:29N 30°06' W 093°17'0 0.0
2017-Sep-13 07:59N 30°06' W 093°17'0 0.0
2017-Sep-13 07:29N 30°06' W 093°17'0 0.0
2017-Sep-13 06:59N 30°06' W 093°17'0 0.0
2017-Sep-13 06:29N 30°06' W 093°17'0 0.0
2017-Sep-13 05:59N 30°06' W 093°17'0 0.0
2017-Sep-13 05:29N 30°06' W 093°17'0 0.0
2017-Sep-13 04:59N 30°06' W 093°17'0 0.0
2017-Sep-13 04:29N 30°06' W 093°17'0 0.0
2017-Sep-13 03:59N 30°06' W 093°17'0 0.0
2017-Sep-13 03:29N 30°06' W 093°17'0 0.0
2017-Sep-13 02:59N 30°06' W 093°17'0 0.0
2017-Sep-13 02:29N 30°06' W 093°17'0 0.0
2017-Sep-13 01:59N 30°06' W 093°17'0 0.0
2017-Sep-13 01:29N 30°06' W 093°17'0 0.0
2017-Sep-13 00:59N 30°06' W 093°17'0 0.0
2017-Sep-13 00:29N 30°06' W 093°17'0 0.0
2017-Sep-12 23:59N 30°06' W 093°17'0 0.0
2017-Sep-12 23:29N 30°06' W 093°17'0 0.0
2017-Sep-12 22:59N 30°06' W 093°17'2 4.2
2017-Sep-12 22:30N 30°06' W 093°20'4 8.1
2017-Sep-12 22:01N 30°10' W 093°19'1 1.5
2017-Sep-12 21:31N 30°11' W 093°19'0 0.0
2017-Sep-12 21:00N 30°11' W 093°19'1 3.0
2017-Sep-12 20:31N 30°09' W 093°20'4 7.3
2017-Sep-12 20:01N 30°06' W 093°19'2 3.3
2017-Sep-12 19:28N 30°06' W 093°17'0 0.0
2017-Sep-12 18:58N 30°06' W 093°17'0 0.0
2017-Sep-12 18:28N 30°06' W 093°17'0 0.0
2017-Sep-12 17:58N 30°06' W 093°17'0 0.0
2017-Sep-12 17:28N 30°06' W 093°17'0 0.0
2017-Sep-12 16:58N 30°06' W 093°17'0 0.0
2017-Sep-12 16:28N 30°06' W 093°17'0 0.0
2017-Sep-12 15:58N 30°06' W 093°17'0 0.0
2017-Sep-12 15:28N 30°06' W 093°17'0 0.0
2017-Sep-12 14:58N 30°06' W 093°17'0 0.0
2017-Sep-12 14:28N 30°06' W 093°17'6 0.7
2017-Sep-12 06:19N 30°12' W 093°16'1 2.0
2017-Sep-12 06:00N 30°13' W 093°16'1 1.9
2017-Sep-12 05:29N 30°14' W 093°15'0 0.1
2017-Sep-12 05:00N 30°14' W 093°15'0 0.4
2017-Sep-12 04:30N 30°14' W 093°15'1 1.5
2017-Sep-12 04:01N 30°13' W 093°15'0 0.0
2017-Sep-12 03:30N 30°13' W 093°15'0 0.0
2017-Sep-12 03:01N 30°13' W 093°15'0 0.0
2017-Sep-12 02:30N 30°13' W 093°15'0 0.0
2017-Sep-12 02:00N 30°13' W 093°15'  
Track history (hours):
 
Tides and Currents Weather Stations Pressure Air Temp Water Temp Dewpoint Dewpoint Depression Visibility Wind Speed Wind Dir Waves Ship Positions

Energy Zeus

Owner: Seabulk Towing Services, Inc., Fort Lauderdale, FL. More information available from US FCC via Universal Licensing System and Coast Guard Vessel Documentation Center.

Last reported at 2017-Sep-22 02:00 UTC. Time now 2017-Sep-23 03:55 UTC.
Position N 30°08' W 093°20'.

Length 30 m; draft 4 m.

Type: Tug. MMSI: 367138360.

Date/timePositionNaut miles runAvg speedWind from/ knotsBaromVisibWave heightAir tempDewpointWater temp
2017-Sep-22 02:00N 30°08' W 093°20'3 5.3
2017-Sep-22 01:30N 30°05' W 093°20'0 0.5
2017-Sep-22 01:01N 30°05' W 093°20'2 4.9
2017-Sep-22 00:30N 30°06' W 093°17'0 0.0
2017-Sep-22 00:00N 30°06' W 093°17'0 0.0
2017-Sep-21 23:29N 30°06' W 093°17'0 0.0
2017-Sep-21 22:59N 30°06' W 093°17'0 0.0
2017-Sep-21 22:29N 30°06' W 093°17'0 0.0
2017-Sep-21 21:59N 30°06' W 093°17'0 0.0
2017-Sep-21 21:29N 30°06' W 093°17'0 0.0
2017-Sep-21 20:59N 30°06' W 093°17'0 0.0
2017-Sep-21 20:29N 30°06' W 093°17'0 0.0
2017-Sep-21 19:59N 30°06' W 093°17'0 0.0
2017-Sep-21 19:23N 30°06' W 093°17'0 0.0
2017-Sep-21 18:59N 30°06' W 093°17'0 0.0
2017-Sep-21 18:29N 30°06' W 093°17'0 0.0
2017-Sep-21 17:59N 30°06' W 093°17'0 0.0
2017-Sep-21 17:30N 30°06' W 093°17'2 4.9
2017-Sep-21 17:00N 30°08' W 093°20'3 4.7
2017-Sep-21 16:24N 30°11' W 093°19'2 5.3
2017-Sep-21 16:00N 30°12' W 093°17'1 3.0
2017-Sep-21 15:30N 30°13' W 093°16'1 2.1
2017-Sep-21 15:00N 30°14' W 093°15'0 0.0
2017-Sep-21 14:30N 30°14' W 093°15'0 0.4
2017-Sep-21 14:00N 30°14' W 093°15'2 3.9
2017-Sep-21 13:30N 30°12' W 093°17'4 8.4
2017-Sep-21 13:00N 30°09' W 093°20'1 1.2
2017-Sep-21 12:30N 30°09' W 093°20'0 0.0
2017-Sep-21 12:00N 30°09' W 093°20'1 2.7
2017-Sep-21 11:30N 30°08' W 093°20'3 5.5
2017-Sep-21 11:00N 30°05' W 093°19'2 3.7
2017-Sep-21 10:30N 30°04' W 093°20'3 7.0
2017-Sep-21 10:00N 30°06' W 093°17'0 0.0
2017-Sep-21 09:29N 30°06' W 093°17'0 0.0
2017-Sep-21 08:59N 30°06' W 093°17'0 0.0
2017-Sep-21 08:29N 30°06' W 093°17'0 0.0
2017-Sep-21 07:59N 30°06' W 093°17'0 0.1
2017-Sep-21 07:29N 30°07' W 093°17'0 0.1
2017-Sep-21 06:59N 30°06' W 093°17'0 0.0
2017-Sep-21 06:29N 30°06' W 093°17'0 0.0
2017-Sep-21 05:59N 30°06' W 093°17'0 0.0
2017-Sep-21 05:29N 30°06' W 093°17'0 0.0
2017-Sep-21 04:59N 30°06' W 093°17'0 0.0
2017-Sep-21 04:29N 30°06' W 093°17'0 0.0
2017-Sep-21 03:59N 30°06' W 093°17'0 0.0
2017-Sep-21 03:29N 30°06' W 093°17'0 0.0
2017-Sep-21 02:53N 30°06' W 093°17'0 0.0
2017-Sep-21 02:29N 30°06' W 093°17'2 4.1
2017-Sep-21 02:00N 30°06' W 093°19'4 7.7
2017-Sep-21 01:30N 30°09' W 093°20'0 0.2
2017-Sep-21 01:00N 30°09' W 093°20'2 4.4
2017-Sep-21 00:30N 30°11' W 093°18'3 5.2
2017-Sep-20 23:59N 30°13' W 093°15'0 0.0
2017-Sep-20 23:29N 30°13' W 093°15'0 0.0
2017-Sep-20 22:59N 30°13' W 093°15'0 0.0
2017-Sep-20 22:29N 30°13' W 093°15'0 0.0
2017-Sep-20 21:59N 30°13' W 093°15'0 0.0
2017-Sep-20 21:29N 30°13' W 093°15'0 0.0
2017-Sep-20 20:59N 30°13' W 093°15'0 0.0
2017-Sep-20 20:29N 30°13' W 093°15'0 0.0
2017-Sep-20 19:59N 30°13' W 093°15'0 0.0
2017-Sep-20 19:29N 30°13' W 093°15'0 0.0
2017-Sep-20 18:59N 30°13' W 093°15'0 0.0
2017-Sep-20 18:29N 30°13' W 093°15'0 0.0
2017-Sep-20 17:59N 30°13' W 093°15'0 0.0
2017-Sep-20 17:29N 30°13' W 093°15'0 0.0
2017-Sep-20 16:59N 30°13' W 093°15'0 0.0
2017-Sep-20 16:29N 30°13' W 093°15'0 0.0
2017-Sep-20 15:59N 30°13' W 093°15'0 0.0
2017-Sep-20 15:29N 30°13' W 093°15'0 0.0
2017-Sep-20 14:59N 30°13' W 093°15'0 0.0
2017-Sep-20 13:59N 30°13' W 093°15'0 0.0
2017-Sep-20 13:29N 30°13' W 093°15'0 0.0
2017-Sep-20 12:56N 30°13' W 093°15'0 0.0
2017-Sep-20 12:26N 30°13' W 093°15'0 0.0
2017-Sep-20 11:56N 30°13' W 093°15'0 0.0
2017-Sep-20 11:14N 30°13' W 093°15'0 0.0
2017-Sep-20 10:59N 30°13' W 093°15'0 0.0
2017-Sep-20 10:20N 30°13' W 093°15'0 0.0
2017-Sep-20 09:56N 30°13' W 093°15'0 0.0
2017-Sep-20 09:26N 30°13' W 093°15'0 0.0
2017-Sep-20 08:56N 30°13' W 093°15'0 0.0
2017-Sep-20 08:20N 30°13' W 093°15'0 0.0
2017-Sep-20 07:50N 30°13' W 093°15'2 6.0
2017-Sep-20 07:30N 30°12' W 093°17'4 7.6
2017-Sep-20 07:00N 30°09' W 093°20'0 0.6
2017-Sep-20 06:30N 30°09' W 093°20'0 0.0
2017-Sep-20 06:00N 30°09' W 093°20'0 0.8
2017-Sep-20 05:30N 30°09' W 093°20'1 1.0
2017-Sep-20 05:00N 30°09' W 093°20'0 0.0
2017-Sep-20 04:31N 30°09' W 093°20'0 0.0
2017-Sep-20 04:01N 30°09' W 093°20'1 1.2
2017-Sep-20 03:30N 30°09' W 093°20'0 0.8
2017-Sep-20 03:00N 30°09' W 093°20'2 3.8
2017-Sep-20 02:31N 30°07' W 093°20'3 5.7
2017-Sep-20 02:00N 30°04' W 093°20'3 5.0
2017-Sep-20 01:30N 30°06' W 093°19'1 2.2
2017-Sep-20 01:00N 30°06' W 093°17'0 0.0
2017-Sep-20 00:26N 30°06' W 093°17'0 0.0
2017-Sep-19 23:59N 30°06' W 093°17'0 0.0
2017-Sep-19 23:29N 30°06' W 093°17'0 0.0
2017-Sep-19 22:59N 30°06' W 093°17'0 0.0
2017-Sep-19 22:29N 30°06' W 093°17'0 0.0
2017-Sep-19 21:59N 30°06' W 093°17'0 0.0
2017-Sep-19 21:29N 30°06' W 093°17'0 0.0
2017-Sep-19 20:59N 30°06' W 093°17'0 0.0
2017-Sep-19 20:29N 30°06' W 093°17'0 0.0
2017-Sep-19 19:59N 30°06' W 093°17'0 0.0
2017-Sep-19 19:11N 30°06' W 093°17'0 0.0
2017-Sep-19 19:00N 30°06' W 093°17'2 4.8
2017-Sep-19 18:30N 30°07' W 093°20'2 0.9
2017-Sep-19 16:11N 30°09' W 093°20'1 8.7
2017-Sep-19 16:00N 30°08' W 093°20'2 5.0
2017-Sep-19 15:30N 30°06' W 093°17'0 0.0
2017-Sep-19 15:00N 30°06' W 093°17'0 0.0
2017-Sep-19 14:30N 30°06' W 093°17'0 0.0
2017-Sep-19 14:00N 30°06' W 093°17'0 0.0
2017-Sep-19 13:30N 30°06' W 093°17'0 0.0
2017-Sep-19 13:00N 30°06' W 093°17'0 0.0
2017-Sep-19 12:30N 30°06' W 093°17'0 0.0
2017-Sep-19 12:00N 30°06' W 093°17'0 0.0
2017-Sep-19 11:30N 30°06' W 093°17'0 0.0
2017-Sep-19 11:00N 30°06' W 093°17'0 0.0
2017-Sep-19 10:30N 30°06' W 093°17'2 4.5
2017-Sep-19 10:00N 30°07' W 093°20'4 7.7
2017-Sep-19 09:31N 30°10' W 093°19'0 0.6
2017-Sep-19 09:01N 30°11' W 093°19'1 2.3
2017-Sep-19 08:31N 30°11' W 093°18'0 0.0
2017-Sep-19 08:01N 30°11' W 093°18'0 0.0
2017-Sep-19 07:31N 30°11' W 093°18'3 5.3
2017-Sep-19 07:01N 30°13' W 093°16'0 0.5
2017-Sep-19 06:13N 30°13' W 093°15'0 2.3
2017-Sep-19 06:00N 30°13' W 093°15'0 0.0
2017-Sep-19 05:30N 30°13' W 093°15'0 0.0
2017-Sep-19 04:44N 30°13' W 093°15'0 0.0
2017-Sep-19 04:29N 30°13' W 093°15'0 0.0
2017-Sep-19 03:59N 30°13' W 093°15'0 0.0
2017-Sep-19 03:29N 30°13' W 093°15'0 0.0
2017-Sep-19 02:47N 30°13' W 093°15'0 0.0
2017-Sep-19 02:26N 30°13' W 093°15'0 0.0
2017-Sep-19 01:59N 30°13' W 093°15'0 0.0
2017-Sep-19 01:29N 30°13' W 093°15'0 0.0
2017-Sep-19 00:23N 30°13' W 093°15'0 0.0
2017-Sep-18 23:59N 30°13' W 093°15'0 0.0
2017-Sep-18 23:29N 30°13' W 093°15'0 0.0
2017-Sep-18 22:59N 30°13' W 093°15'0 0.0
2017-Sep-18 22:29N 30°13' W 093°15'0 0.0
2017-Sep-18 21:59N 30°13' W 093°15'0 0.0
2017-Sep-18 21:29N 30°13' W 093°15'0 0.0
2017-Sep-18 20:59N 30°13' W 093°15'0 0.0
2017-Sep-18 20:29N 30°13' W 093°15'0 0.0
2017-Sep-18 19:59N 30°13' W 093°15'0 0.0
2017-Sep-18 19:29N 30°13' W 093°15'0 0.0
2017-Sep-18 18:59N 30°13' W 093°15'0 0.0
2017-Sep-18 18:29N 30°13' W 093°15'0 0.0
2017-Sep-18 17:59N 30°13' W 093°15'0 0.0
2017-Sep-18 17:29N 30°13' W 093°15'0 0.0
2017-Sep-18 16:59N 30°13' W 093°15'0 0.0
2017-Sep-18 16:28N 30°13' W 093°15'4 7.6
2017-Sep-18 16:00N 30°11' W 093°19'2 4.6
2017-Sep-18 15:30N 30°09' W 093°20'0 0.0
2017-Sep-18 15:00N 30°09' W 093°20'1 2.6
2017-Sep-18 14:30N 30°07' W 093°20'1 1.8
2017-Sep-18 14:00N 30°07' W 093°20'1 2.9
2017-Sep-18 13:30N 30°06' W 093°18'1 1.5
2017-Sep-18 13:00N 30°06' W 093°17'0 0.0
2017-Sep-18 12:30N 30°06' W 093°17'0 0.0
2017-Sep-18 12:00N 30°06' W 093°17'2 3.9
2017-Sep-18 11:30N 30°06' W 093°19'4 7.5
2017-Sep-18 11:00N 30°09' W 093°20'0 0.5
2017-Sep-18 10:30N 30°10' W 093°20'0 0.0
2017-Sep-18 10:00N 30°10' W 093°20'0 0.7
2017-Sep-18 09:30N 30°09' W 093°20'2 4.2
2017-Sep-18 09:00N 30°07' W 093°20'3 5.8
2017-Sep-18 08:30N 30°04' W 093°20'1 1.4
2017-Sep-18 08:00N 30°04' W 093°20'3 7.0
2017-Sep-18 07:30N 30°06' W 093°17'0 0.0
2017-Sep-18 06:58N 30°06' W 093°17'0 0.0
2017-Sep-18 06:28N 30°06' W 093°17'0 0.0
2017-Sep-18 05:58N 30°06' W 093°17'0 0.0
2017-Sep-18 05:28N 30°06' W 093°17'0 0.0
2017-Sep-18 04:58N 30°06' W 093°17'0 0.0
2017-Sep-18 04:28N 30°06' W 093°17'0 0.0
2017-Sep-18 03:58N 30°06' W 093°17'0 0.0
2017-Sep-18 03:28N 30°06' W 093°17'0 0.0
2017-Sep-18 02:58N 30°06' W 093°17'0 0.0
2017-Sep-18 02:28N 30°06' W 093°17'0 0.0
2017-Sep-18 01:58N 30°06' W 093°17'0 0.0
2017-Sep-18 01:28N 30°06' W 093°17'0 0.0
2017-Sep-18 00:58N 30°06' W 093°17'0 0.0
2017-Sep-18 00:28N 30°06' W 093°17'2 5.0
2017-Sep-18 00:00N 30°07' W 093°20'4 8.1
2017-Sep-17 23:31N 30°11' W 093°19'0 0.2
2017-Sep-17 23:00N 30°11' W 093°19'0 0.5
2017-Sep-17 22:30N 30°11' W 093°19'0 0.7
2017-Sep-17 22:01N 30°11' W 093°18'1 1.8
2017-Sep-17 21:26N 30°12' W 093°18'0 0.0
2017-Sep-17 20:59N 30°12' W 093°18'0 0.0
2017-Sep-17 20:29N 30°12' W 093°18'0 0.0
2017-Sep-17 19:59N 30°12' W 093°18'0 0.0
2017-Sep-17 19:26N 30°12' W 093°18'0 0.0
2017-Sep-17 18:59N 30°12' W 093°18'0 0.2
2017-Sep-17 18:30N 30°12' W 093°18'1 1.6
2017-Sep-17 18:00N 30°11' W 093°18'2 3.4
2017-Sep-17 17:30N 30°10' W 093°19'0 0.0
2017-Sep-17 17:00N 30°10' W 093°20'0 0.0
2017-Sep-17 16:30N 30°10' W 093°20'0 0.0
2017-Sep-17 16:00N 30°10' W 093°20'0 0.0
2017-Sep-17 15:30N 30°10' W 093°20'0 0.4
2017-Sep-17 15:00N 30°09' W 093°20'2 3.3
2017-Sep-17 14:30N 30°11' W 093°19'1 2.1
2017-Sep-17 14:00N 30°12' W 093°18'0 0.1
2017-Sep-17 13:30N 30°12' W 093°18'0 0.0
2017-Sep-17 13:00N 30°12' W 093°18'0 0.0
2017-Sep-17 12:30N 30°12' W 093°18'0 0.2
2017-Sep-17 12:00N 30°12' W 093°18'0 0.4
2017-Sep-17 11:30N 30°11' W 093°18'0 0.0
2017-Sep-17 11:00N 30°11' W 093°18'1 1.8
2017-Sep-17 10:30N 30°11' W 093°19'0 0.7
2017-Sep-17 10:00N 30°11' W 093°18'1 2.9
2017-Sep-17 09:30N 30°10' W 093°19'3 5.5
2017-Sep-17 09:00N 30°12' W 093°17'2 4.0
2017-Sep-17 08:30N 30°13' W 093°15'0 0.0
2017-Sep-17 07:59N 30°13' W 093°15'0 0.0
2017-Sep-17 07:30N 30°13' W 093°15'1 2.1
2017-Sep-17 07:00N 30°14' W 093°15'0 0.2
2017-Sep-17 06:30N 30°14' W 093°15'2 3.1
2017-Sep-17 06:00N 30°12' W 093°16'2 3.4
2017-Sep-17 05:30N 30°11' W 093°18'0 0.1
2017-Sep-17 04:57N 30°11' W 093°18'2 5.6
2017-Sep-17 04:30N 30°09' W 093°20'4 7.3
2017-Sep-17 04:00N 30°06' W 093°20'0 0.4
2017-Sep-17 03:30N 30°06' W 093°20'0 0.0
2017-Sep-17 03:00N 30°06' W 093°20'0 0.0
2017-Sep-17 02:30N 30°06' W 093°20'0 0.0
2017-Sep-17 02:00N 30°06' W 093°20'0 0.0
2017-Sep-17 01:30N 30°06' W 093°20'1 2.8
2017-Sep-17 01:00N 30°06' W 093°18'0 0.0
2017-Sep-17 00:30N 30°06' W 093°18'0 0.0
2017-Sep-17 00:00N 30°06' W 093°18'0 0.4
2017-Sep-16 23:30N 30°06' W 093°19'3 5.8
2017-Sep-16 23:00N 30°09' W 093°20'4 8.5
2017-Sep-16 22:30N 30°12' W 093°17'1 2.4
2017-Sep-16 21:59N 30°13' W 093°15'0 0.0
2017-Sep-16 21:26N 30°13' W 093°15'0 0.0
2017-Sep-16 20:59N 30°13' W 093°15'0 0.0
2017-Sep-16 20:29N 30°13' W 093°15'0 0.0
2017-Sep-16 19:59N 30°13' W 093°15'0 0.0
2017-Sep-16 19:29N 30°13' W 093°15'0 0.0
2017-Sep-16 18:59N 30°13' W 093°15'0 0.0
2017-Sep-16 18:29N 30°13' W 093°15'0 0.0
2017-Sep-16 17:59N 30°13' W 093°15'0 0.0
2017-Sep-16 17:29N 30°13' W 093°15'0 0.0
2017-Sep-16 16:59N 30°13' W 093°15'0 0.0
2017-Sep-16 16:29N 30°13' W 093°15'0 0.0
2017-Sep-16 15:59N 30°13' W 093°15'0 0.0
2017-Sep-16 15:29N 30°13' W 093°15'0 0.0
2017-Sep-16 14:56N 30°13' W 093°15'0 0.0
2017-Sep-16 14:29N 30°13' W 093°15'0 0.0
2017-Sep-16 13:59N 30°13' W 093°15'0 0.0
2017-Sep-16 13:29N 30°13' W 093°15'0 0.0
2017-Sep-16 12:59N 30°13' W 093°15'0 0.0
2017-Sep-16 12:29N 30°13' W 093°15'0 0.0
2017-Sep-16 11:50N 30°13' W 093°15'0 0.0
2017-Sep-16 11:26N 30°13' W 093°15'1 1.6
2017-Sep-16 11:00N 30°13' W 093°15'1 1.6
2017-Sep-16 10:29N 30°14' W 093°15'0 0.9
2017-Sep-16 10:00N 30°14' W 093°15'1 1.8
2017-Sep-16 09:30N 30°13' W 093°16'1 2.6
2017-Sep-16 09:00N 30°12' W 093°17'2 4.4
2017-Sep-16 08:30N 30°11' W 093°19'2 3.7
2017-Sep-16 08:00N 30°09' W 093°20'3 5.1
2017-Sep-16 07:30N 30°07' W 093°20'3 6.1
2017-Sep-16 07:00N 30°04' W 093°20'1 1.2
2017-Sep-16 06:30N 30°04' W 093°20'3 5.6
2017-Sep-16 06:00N 30°06' W 093°17'0 0.0
2017-Sep-16 05:30N 30°06' W 093°17'0 0.0
2017-Sep-16 05:00N 30°06' W 093°17'0 0.0
2017-Sep-16 04:30N 30°06' W 093°17'1 1.5
2017-Sep-16 04:00N 30°06' W 093°18'3 5.3
2017-Sep-16 03:30N 30°09' W 093°20'4 8.4
2017-Sep-16 03:00N 30°12' W 093°17'2 2.7
2017-Sep-16 02:20N 30°13' W 093°15'1 3.7
2017-Sep-16 02:00N 30°12' W 093°16'2 3.1
2017-Sep-16 01:28N 30°11' W 093°18'0 0.4
2017-Sep-16 01:00N 30°11' W 093°18'4 7.0
2017-Sep-16 00:30N 30°08' W 093°20'2 4.2
2017-Sep-16 00:00N 30°06' W 093°18'1 1.4
2017-Sep-15 23:30N 30°06' W 093°17'0 0.0
2017-Sep-15 23:00N 30°06' W 093°17'0 0.0
2017-Sep-15 22:30N 30°06' W 093°17'0 0.0
2017-Sep-15 22:00N 30°06' W 093°17'0 0.0
2017-Sep-15 21:30N 30°06' W 093°17'0 0.0
2017-Sep-15 21:00N 30°06' W 093°17'0 0.0
2017-Sep-15 20:30N 30°06' W 093°17'0 0.0
2017-Sep-15 20:00N 30°06' W 093°17'0 0.0
2017-Sep-15 19:30N 30°06' W 093°17'0 0.0
2017-Sep-15 19:00N 30°06' W 093°17'0 0.0
2017-Sep-15 18:30N 30°06' W 093°17'0 0.0
2017-Sep-15 18:00N 30°06' W 093°17'0 0.0
2017-Sep-15 17:30N 30°06' W 093°17'2 3.1
2017-Sep-15 17:01N 30°06' W 093°19'4 7.2
2017-Sep-15 16:30N 30°09' W 093°20'0 0.3
2017-Sep-15 16:00N 30°09' W 093°20'1 1.5
2017-Sep-15 15:30N 30°09' W 093°20'1 1.7
2017-Sep-15 15:00N 30°10' W 093°20'0 0.5
2017-Sep-15 14:31N 30°09' W 093°20'1 2.6
2017-Sep-15 14:00N 30°11' W 093°19'2 3.7
2017-Sep-15 13:31N 30°12' W 093°17'2 4.1
2017-Sep-15 13:01N 30°13' W 093°16'1 2.0
2017-Sep-15 12:31N 30°14' W 093°15'0 0.0
2017-Sep-15 12:00N 30°14' W 093°15'0 0.1
2017-Sep-15 11:24N 30°14' W 093°15'1 1.8
2017-Sep-15 10:59N 30°13' W 093°15'0 0.0
2017-Sep-15 09:03N 30°13' W 093°15'0 7.0
2017-Sep-15 09:00N 30°13' W 093°16'3 4.8
2017-Sep-15 08:29N 30°12' W 093°18'0 0.1
2017-Sep-15 07:59N 30°11' W 093°18'1 1.5
2017-Sep-15 07:27N 30°11' W 093°18'1 2.7
2017-Sep-15 07:01N 30°10' W 093°19'0 0.5
2017-Sep-15 06:30N 30°10' W 093°19'3 5.4
2017-Sep-15 06:00N 30°12' W 093°17'2 3.4
2017-Sep-15 05:28N 30°13' W 093°15'0 0.0
2017-Sep-15 04:58N 30°13' W 093°15'0 0.0
2017-Sep-15 04:28N 30°13' W 093°15'0 0.0
2017-Sep-15 03:58N 30°13' W 093°15'0 0.0
2017-Sep-15 03:28N 30°13' W 093°15'0 0.0
2017-Sep-15 02:58N 30°13' W 093°15'0 0.0
2017-Sep-15 02:28N 30°13' W 093°15'0 0.0
2017-Sep-15 01:58N 30°13' W 093°15'0 0.0
2017-Sep-15 01:28N 30°13' W 093°15'0 0.0
2017-Sep-15 00:58N 30°13' W 093°15'0 0.0
2017-Sep-15 00:28N 30°13' W 093°15'0 0.0
2017-Sep-14 23:58N 30°13' W 093°15'1 3.0
2017-Sep-14 23:30N 30°12' W 093°17'4 2.5
2017-Sep-14 22:01N 30°09' W 093°20'0 0.0
2017-Sep-14 22:00N 30°09' W 093°20'0 0.4
2017-Sep-14 21:31N 30°09' W 093°20'3 7.0
2017-Sep-14 21:01N 30°12' W 093°17'1 2.3
2017-Sep-14 20:24N 30°13' W 093°15'0 0.0
2017-Sep-14 20:00N 30°13' W 093°15'0 0.0
2017-Sep-14 19:18N 30°13' W 093°15'0 0.0
2017-Sep-14 18:57N 30°13' W 093°15'0 0.0
2017-Sep-14 18:30N 30°13' W 093°15'0 0.0
2017-Sep-14 18:00N 30°13' W 093°15'0 0.0
2017-Sep-14 17:21N 30°13' W 093°15'0 0.0
2017-Sep-14 16:57N 30°13' W 093°15'0 0.0
2017-Sep-14 16:30N 30°13' W 093°15'0 0.0
2017-Sep-14 16:00N 30°13' W 093°15'0 0.0
2017-Sep-14 15:30N 30°13' W 093°15'0 0.0
2017-Sep-14 15:00N 30°13' W 093°15'0 0.0
2017-Sep-14 14:30N 30°13' W 093°15'0 0.0
2017-Sep-14 14:00N 30°13' W 093°15'0 0.0
2017-Sep-14 13:30N 30°13' W 093°15'0 0.0
2017-Sep-14 12:54N 30°13' W 093°15'0 0.0
2017-Sep-14 12:30N 30°13' W 093°15'0 0.0
2017-Sep-14 12:00N 30°13' W 093°15'0 0.0
2017-Sep-14 11:30N 30°13' W 093°15'0 0.0
2017-Sep-14 10:51N 30°13' W 093°15'0 0.0
2017-Sep-14 10:30N 30°13' W 093°15'0 0.0
2017-Sep-14 09:57N 30°13' W 093°15'0 0.0
2017-Sep-14 09:27N 30°13' W 093°15'1 2.4
2017-Sep-14 09:00N 30°13' W 093°15'0 0.9
2017-Sep-14 08:30N 30°14' W 093°15'0 0.0
2017-Sep-14 08:00N 30°14' W 093°15'0 0.2
2017-Sep-14 07:30N 30°14' W 093°15'1 1.5
2017-Sep-14 07:00N 30°13' W 093°15'1 2.7
2017-Sep-14 06:30N 30°12' W 093°16'3 5.5
2017-Sep-14 06:00N 30°11' W 093°19'2 3.3
2017-Sep-14 05:30N 30°09' W 093°20'3 5.3
2017-Sep-14 05:00N 30°07' W 093°20'3 6.7
2017-Sep-14 04:30N 30°03' W 093°20'2 4.3
2017-Sep-14 04:00N 30°05' W 093°20'2 4.2
2017-Sep-14 03:30N 30°06' W 093°17'0 0.0
2017-Sep-14 03:00N 30°06' W 093°17'0 0.0
2017-Sep-14 02:30N 30°06' W 093°17'0 0.0
2017-Sep-14 02:00N 30°06' W 093°17'0 0.0
2017-Sep-14 01:30N 30°06' W 093°17'0 0.0
2017-Sep-14 01:00N 30°06' W 093°17'0 0.0
2017-Sep-14 00:30N 30°06' W 093°17'0 0.0
2017-Sep-14 00:00N 30°06' W 093°17'0 0.0
2017-Sep-13 23:30N 30°06' W 093°17'0 0.0
2017-Sep-13 23:01N 30°06' W 093°17'0 0.0
2017-Sep-13 22:30N 30°06' W 093°17'0 0.0
2017-Sep-13 22:00N 30°06' W 093°17'0 0.0
2017-Sep-13 21:30N 30°06' W 093°17'0 0.0
2017-Sep-13 21:00N 30°06' W 093°17'0 0.0
2017-Sep-13 20:30N 30°06' W 093°17'0 0.0
2017-Sep-13 20:00N 30°06' W 093°17'0 0.0
2017-Sep-13 19:30N 30°06' W 093°17'0 0.0
2017-Sep-13 19:00N 30°06' W 093°17'0 0.0
2017-Sep-13 18:30N 30°06' W 093°17'0 0.0
2017-Sep-13 18:00N 30°06' W 093°17'0 0.0
2017-Sep-13 17:30N 30°06' W 093°17'0 0.0
2017-Sep-13 17:00N 30°06' W 093°17'0 0.0
2017-Sep-13 16:30N 30°06' W 093°17'0 0.0
2017-Sep-13 16:00N 30°06' W 093°17'2 4.7
2017-Sep-13 15:30N 30°07' W 093°20'3 5.8
2017-Sep-13 15:00N 30°10' W 093°19'1 1.5
2017-Sep-13 14:30N 30°11' W 093°19'2 3.8
2017-Sep-13 14:00N 30°09' W 093°20'0 0.0
2017-Sep-13 13:30N 30°09' W 093°20'0 0.4
2017-Sep-13 13:00N 30°09' W 093°20'2 4.7
2017-Sep-13 12:30N 30°07' W 093°20'3 5.9
2017-Sep-13 12:00N 30°04' W 093°20'2 3.3
2017-Sep-13 11:30N 30°02' W 093°20'4 7.3
2017-Sep-13 11:00N 30°06' W 093°19'1 2.8
2017-Sep-13 10:29N 30°06' W 093°17'0 0.0
2017-Sep-13 09:59N 30°06' W 093°17'0 0.0
2017-Sep-13 09:29N 30°06' W 093°17'0 0.0
2017-Sep-13 08:59N 30°06' W 093°17'0 0.0
2017-Sep-13 08:29N 30°06' W 093°17'0 0.0
2017-Sep-13 07:59N 30°06' W 093°17'0 0.0
2017-Sep-13 07:29N 30°06' W 093°17'0 0.0
2017-Sep-13 06:59N 30°06' W 093°17'0 0.0
2017-Sep-13 06:29N 30°06' W 093°17'0 0.0
2017-Sep-13 05:59N 30°06' W 093°17'0 0.0
2017-Sep-13 05:29N 30°06' W 093°17'0 0.0
2017-Sep-13 04:59N 30°06' W 093°17'0 0.0
2017-Sep-13 04:29N 30°06' W 093°17'0 0.0
2017-Sep-13 03:59N 30°06' W 093°17'0 0.0
2017-Sep-13 03:29N 30°06' W 093°17'0 0.0
2017-Sep-13 02:59N 30°06' W 093°17'0 0.0
2017-Sep-13 02:29N 30°06' W 093°17'0 0.0
2017-Sep-13 01:59N 30°06' W 093°17'0 0.0
2017-Sep-13 01:29N 30°06' W 093°17'0 0.0
2017-Sep-13 00:59N 30°06' W 093°17'0 0.0
2017-Sep-13 00:29N 30°06' W 093°17'0 0.0
2017-Sep-12 23:59N 30°06' W 093°17'0 0.0
2017-Sep-12 23:29N 30°06' W 093°17'0 0.0
2017-Sep-12 22:59N 30°06' W 093°17'2 4.2
2017-Sep-12 22:30N 30°06' W 093°20'4 8.1
2017-Sep-12 22:01N 30°10' W 093°19'1 1.5
2017-Sep-12 21:31N 30°11' W 093°19'0 0.0
2017-Sep-12 21:00N 30°11' W 093°19'1 3.0
2017-Sep-12 20:31N 30°09' W 093°20'4 7.3
2017-Sep-12 20:01N 30°06' W 093°19'2 3.3
2017-Sep-12 19:28N 30°06' W 093°17'0 0.0
2017-Sep-12 18:58N 30°06' W 093°17'0 0.0
2017-Sep-12 18:28N 30°06' W 093°17'0 0.0
2017-Sep-12 17:58N 30°06' W 093°17'0 0.0
2017-Sep-12 17:28N 30°06' W 093°17'0 0.0
2017-Sep-12 16:58N 30°06' W 093°17'0 0.0
2017-Sep-12 16:28N 30°06' W 093°17'0 0.0
2017-Sep-12 15:58N 30°06' W 093°17'0 0.0
2017-Sep-12 15:28N 30°06' W 093°17'0 0.0
2017-Sep-12 14:58N 30°06' W 093°17'0 0.0
2017-Sep-12 14:28N 30°06' W 093°17'6 0.7
2017-Sep-12 06:19N 30°12' W 093°16'1 2.0
2017-Sep-12 06:00N 30°13' W 093°16'1 1.9
2017-Sep-12 05:29N 30°14' W 093°15'0 0.1
2017-Sep-12 05:00N 30°14' W 093°15'0 0.4
2017-Sep-12 04:30N 30°14' W 093°15'1 1.5
2017-Sep-12 04:01N 30°13' W 093°15'0 0.0
2017-Sep-12 03:30N 30°13' W 093°15'0 0.0
2017-Sep-12 03:01N 30°13' W 093°15'0 0.0
2017-Sep-12 02:30N 30°13' W 093°15'0 0.0
2017-Sep-12 02:00N 30°13' W 093°15'  

Dump ship's entire track history